MA62 weather

Public forecast

Using degrees Fahrenheit for public forecast. Weather courtesy of forecast.io.

Closest aviation weather report (METAR) to Sampson Pond Heliport

Closest report is Plymouth Municipal Airport, 3.1 nm (5.7 km) NNE. Retrieved 2020/08/15 19:26 UTC (31 minutes ago):

KPYM 151926Z AUTO 02011G21KT 10SM OVC009 19/17 A3007 RMK AO2 T01890172

Closest aviation forecast (TAF) to Sampson Pond Heliport

Forecast is more than 6 hours old.

Closest forecast is Cape Cod Coast Guard Air Station, 15.9 nm (29.5 km) SE. Retrieved 2020/08/15 12:22 UTC (8 hours ago):

TAF KFMH 151120Z 1512/1612 03014G28KT P6SM BKN015 FM151600 04016G28KT P6SM BKN015 FM152200 04011KT P6SM BKN015 FM160800 04007KT P6SM OVC020